Terminal Aerodrome Forecast
Issued by NWS Charleston, WV

Current Version | Previous Version | Graphics & Text | Print | Product List | Glossary On
Versions: 1 2 3 4 5 6 7 8 9 10 11 12 13 14 15 16 17 18 19 20 21 22 23 24 25
000
FTUS41 KRLX 142339
TAFHTS
TAF
KHTS 142339Z 1500/1524 06004KT P6SM FEW025
     FM150300 VRB03KT P6SM FEW250
     FM151400 15006KT P6SM SCT200
     FM151900 19009KT P6SM BKN200
     FM152300 21007KT 6SM -SHRA OVC070=

USA.gov is the U.S. government's official web portal to all federal, state and local government web resources and services.